createdAt,value
2022-11-05T00:02:20.668Z,82.96
2022-11-05T00:05:00.866Z,82.75
2022-11-05T00:07:51.035Z,82.68
2022-11-05T00:10:26.436Z,83.80
2022-11-05T00:13:11.773Z,83.77
2022-11-05T00:15:51.438Z,83.59
2022-11-05T00:18:19.814Z,83.31
2022-11-05T00:20:47.923Z,83.00
2022-11-05T00:23:31.944Z,82.94
2022-11-05T00:26:02.260Z,82.67
2022-11-05T00:28:32.152Z,82.80
2022-11-05T00:31:04.779Z,82.79
2022-11-05T00:33:33.188Z,82.43
2022-11-05T00:36:03.189Z,82.70
2022-11-05T00:38:31.230Z,82.76
2022-11-05T00:40:59.496Z,84.07
2022-11-05T00:43:43.693Z,83.56
2022-11-05T00:46:11.752Z,83.20
2022-11-05T00:48:53.511Z,83.17
2022-11-05T00:51:22.721Z,84.16
2022-11-05T00:53:51.033Z,84.84
2022-11-05T00:56:18.934Z,84.71
2022-11-05T00:58:47.006Z,85.09
2022-11-05T01:01:15.775Z,84.40
2022-11-05T01:03:51.441Z,84.22
2022-11-05T01:06:19.982Z,84.12
2022-11-05T01:08:49.005Z,84.00
2022-11-05T01:11:35.063Z,83.78
2022-11-05T01:14:05.450Z,83.85
2022-11-05T01:16:33.895Z,83.48
2022-11-05T01:19:04.163Z,83.63
2022-11-05T01:21:32.314Z,83.28
2022-11-05T01:24:01.256Z,83.56
2022-11-05T01:26:29.327Z,83.03
2022-11-05T01:29:00.720Z,84.12
2022-11-05T01:31:29.191Z,83.72
2022-11-05T01:33:57.182Z,83.43
2022-11-05T01:36:25.182Z,83.25
2022-11-05T01:38:53.175Z,83.39
2022-11-05T01:41:21.261Z,83.82
2022-11-05T01:43:52.782Z,85.32
2022-11-05T01:46:27.848Z,85.27
2022-11-05T01:49:03.266Z,85.25
2022-11-05T01:51:32.358Z,86.61
2022-11-05T01:54:05.275Z,86.86
2022-11-05T01:56:47.990Z,85.93
2022-11-05T01:59:26.294Z,85.47
2022-11-05T02:01:55.092Z,85.27
2022-11-05T02:04:30.617Z,84.97
2022-11-05T02:06:59.689Z,85.93
2022-11-05T02:09:34.943Z,85.76
2022-11-05T02:12:03.522Z,85.72
2022-11-05T02:14:31.524Z,85.98
2022-11-05T02:17:17.827Z,86.28
2022-11-05T02:20:10.445Z,86.07
2022-11-05T02:23:04.713Z,86.09
2022-11-05T02:26:11.947Z,85.56
2022-11-05T02:29:04.864Z,85.39
2022-11-05T02:32:05.395Z,85.44
2022-11-05T02:34:52.469Z,85.56
2022-11-05T02:37:42.568Z,85.31
2022-11-05T02:40:42.925Z,85.26
2022-11-05T02:43:28.039Z,84.92
2022-11-05T02:46:20.997Z,86.22
2022-11-05T02:49:04.324Z,86.33
2022-11-05T02:51:48.023Z,86.74
2022-11-05T02:54:38.776Z,87.46
2022-11-05T02:57:07.204Z,86.20
2022-11-05T02:59:34.976Z,85.91
2022-11-05T03:02:03.976Z,85.85
2022-11-05T03:04:32.515Z,85.44
2022-11-05T03:07:17.249Z,85.35
2022-11-05T03:10:07.140Z,85.44
2022-11-05T03:13:04.391Z,85.24
2022-11-05T03:15:55.006Z,85.04
2022-11-05T03:18:39.555Z,85.02
2022-11-05T03:21:25.955Z,84.67
2022-11-05T03:24:02.222Z,86.50
2022-11-05T03:26:35.840Z,86.43
2022-11-05T03:29:11.680Z,86.09
2022-11-05T03:31:41.796Z,85.58
2022-11-05T03:34:13.504Z,85.47
2022-11-05T03:36:47.153Z,85.43
2022-11-05T03:39:21.882Z,85.34
2022-11-05T03:41:54.005Z,84.72
2022-11-05T03:44:39.115Z,84.75
2022-11-05T03:47:11.697Z,84.76
2022-11-05T03:49:50.944Z,84.85
2022-11-05T03:52:23.111Z,84.42
2022-11-05T03:54:50.959Z,84.52
2022-11-05T03:57:25.888Z,84.29
2022-11-05T03:59:53.809Z,84.24
2022-11-05T04:02:25.580Z,84.36
2022-11-05T04:04:55.045Z,84.57
2022-11-05T04:07:37.855Z,84.32
2022-11-05T04:10:18.072Z,84.57
2022-11-05T04:12:58.164Z,84.17
2022-11-05T04:15:26.961Z,84.32
2022-11-05T04:17:58.984Z,83.99
2022-11-05T04:20:38.673Z,83.94
2022-11-05T04:23:18.818Z,83.97
2022-11-05T04:25:46.686Z,83.87
2022-11-05T04:28:15.167Z,83.90
2022-11-05T04:30:46.106Z,83.84
2022-11-05T04:33:16.026Z,84.81
2022-11-05T04:35:46.816Z,85.79
2022-11-05T04:38:18.413Z,85.83
2022-11-05T04:40:47.720Z,85.70
2022-11-05T04:43:19.204Z,85.64
2022-11-05T04:45:47.549Z,85.53
2022-11-05T04:48:15.315Z,85.02
2022-11-05T04:50:43.180Z,85.01
2022-11-05T04:53:11.336Z,84.86
2022-11-05T04:55:39.425Z,84.79
2022-11-05T04:58:07.313Z,84.59
2022-11-05T05:00:35.494Z,84.69
2022-11-05T05:03:03.651Z,85.01
2022-11-05T05:05:31.586Z,84.88
2022-11-05T05:08:03.681Z,84.51
2022-11-05T05:10:32.270Z,84.88
2022-11-05T05:13:00.093Z,84.51
2022-11-05T05:15:27.894Z,84.40
2022-11-05T05:17:56.400Z,84.31
2022-11-05T05:20:42.368Z,84.30
2022-11-05T05:23:10.947Z,84.31
2022-11-05T05:25:39.030Z,83.95
2022-11-05T05:28:06.896Z,84.20
2022-11-05T05:30:34.861Z,84.28
2022-11-05T05:33:03.985Z,84.06
2022-11-05T05:35:31.917Z,84.09
2022-11-05T05:37:59.876Z,84.01
2022-11-05T05:40:27.582Z,84.27
2022-11-05T05:42:55.866Z,84.35
2022-11-05T05:45:23.766Z,84.12
2022-11-05T05:47:51.731Z,84.03
2022-11-05T05:50:19.627Z,84.19
2022-11-05T05:52:53.593Z,83.94
2022-11-05T05:55:21.603Z,83.96
2022-11-05T05:57:49.605Z,84.18
2022-11-05T06:00:17.823Z,84.27
2022-11-05T06:02:45.759Z,84.25
2022-11-05T06:05:13.891Z,83.95
2022-11-05T06:07:41.785Z,84.00
2022-11-05T06:10:09.897Z,83.97
2022-11-05T06:12:37.666Z,83.88
2022-11-05T06:15:05.952Z,83.68
2022-11-05T06:17:34.081Z,83.42
2022-11-05T06:20:01.912Z,83.35
2022-11-05T06:22:30.410Z,82.91
2022-11-05T06:24:58.261Z,82.71
2022-11-05T06:27:26.068Z,82.58
2022-11-05T06:29:54.131Z,81.42
2022-11-05T06:32:21.926Z,81.13
2022-11-05T06:34:49.713Z,81.04
2022-11-05T06:37:17.521Z,80.94
2022-11-05T06:39:45.335Z,81.39
2022-11-05T06:42:20.561Z,81.13
2022-11-05T06:44:48.640Z,81.13
2022-11-05T06:47:16.468Z,81.42
2022-11-05T06:49:44.293Z,81.42
2022-11-05T06:52:13.804Z,80.78
2022-11-05T06:54:43.907Z,80.71
2022-11-05T06:57:12.435Z,80.47
2022-11-05T06:59:41.254Z,80.70
2022-11-05T07:02:12.898Z,80.60
2022-11-05T07:04:41.908Z,80.50
2022-11-05T07:07:09.953Z,80.48
2022-11-05T07:09:40.796Z,80.06
2022-11-05T07:12:10.317Z,79.86
2022-11-05T07:14:38.234Z,79.80
2022-11-05T07:17:06.145Z,79.27
2022-11-05T07:19:34.034Z,78.52
2022-11-05T07:22:02.058Z,78.44
2022-11-05T07:24:29.956Z,78.53
2022-11-05T07:26:58.070Z,78.71
2022-11-05T07:29:26.095Z,78.66
2022-11-05T07:31:54.156Z,79.06
2022-11-05T07:34:22.253Z,79.05
2022-11-05T07:36:50.137Z,79.48
2022-11-05T07:39:18.380Z,79.78
2022-11-05T07:41:46.317Z,79.40
2022-11-05T07:44:14.536Z,79.23
2022-11-05T07:46:42.488Z,79.28
2022-11-05T07:49:10.458Z,79.41
2022-11-05T07:51:38.522Z,78.69
2022-11-05T07:54:06.600Z,78.80
2022-11-05T07:56:34.681Z,78.85
2022-11-05T07:59:03.310Z,78.43
2022-11-05T08:01:31.551Z,78.59
2022-11-05T08:03:59.928Z,78.70
2022-11-05T08:06:28.325Z,78.49
2022-11-05T08:08:57.124Z,78.59
2022-11-05T08:11:25.457Z,78.41
2022-11-05T08:13:55.820Z,78.36
2022-11-05T08:16:27.260Z,78.32
2022-11-05T08:18:56.046Z,78.55
2022-11-05T08:21:24.240Z,78.11
2022-11-05T08:23:53.225Z,78.15
2022-11-05T08:26:21.584Z,77.04
2022-11-05T08:28:52.320Z,75.62
2022-11-05T08:31:22.740Z,75.86
2022-11-05T08:33:52.640Z,75.92
2022-11-05T08:36:20.863Z,74.45
2022-11-05T08:38:49.157Z,73.16
2022-11-05T08:41:17.360Z,71.97
2022-11-05T08:43:46.251Z,71.55
2022-11-05T08:46:14.715Z,71.28
2022-11-05T08:48:47.758Z,71.44
2022-11-05T08:51:19.738Z,71.93
2022-11-05T08:53:48.464Z,71.23
2022-11-05T08:56:18.677Z,70.99
2022-11-05T08:58:49.049Z,71.72
2022-11-05T09:01:18.636Z,71.94
2022-11-05T09:03:51.396Z,70.80
2022-11-05T09:06:21.731Z,68.57
2022-11-05T09:08:50.500Z,69.32
2022-11-05T09:11:22.211Z,68.95
2022-11-05T09:13:50.960Z,68.88
2022-11-05T09:16:25.443Z,69.17
2022-11-05T09:19:07.153Z,68.92
2022-11-05T09:21:39.620Z,69.57
2022-11-05T09:24:09.639Z,70.26
2022-11-05T09:26:37.788Z,70.66
2022-11-05T09:29:10.323Z,69.95
2022-11-05T09:31:44.867Z,69.38
2022-11-05T09:34:13.200Z,68.58
2022-11-05T09:36:42.904Z,69.10
2022-11-05T09:39:13.512Z,69.45
2022-11-05T09:41:46.424Z,69.20
2022-11-05T09:44:22.641Z,69.14
2022-11-05T09:47:02.606Z,69.86
2022-11-05T09:49:40.571Z,69.54
2022-11-05T09:52:24.649Z,69.09
2022-11-05T09:54:54.834Z,68.79
2022-11-05T09:57:31.103Z,68.17
2022-11-05T10:00:06.680Z,67.52
2022-11-05T10:02:56.956Z,66.44
2022-11-05T10:05:30.113Z,66.01
2022-11-05T10:08:14.250Z,66.94
2022-11-05T10:10:55.249Z,64.45
2022-11-05T10:13:43.820Z,63.35
2022-11-05T10:16:31.333Z,61.24
2022-11-05T10:19:25.195Z,61.46
2022-11-05T10:22:13.884Z,60.80
2022-11-05T10:24:47.942Z,60.84
2022-11-05T10:27:41.128Z,59.58
2022-11-05T10:30:23.817Z,59.22
2022-11-05T10:32:56.811Z,60.16
2022-11-05T10:35:30.889Z,61.02
2022-11-05T10:37:59.457Z,61.17
2022-11-05T10:40:56.330Z,61.24
2022-11-05T10:43:43.087Z,60.34
2022-11-05T10:46:45.835Z,60.21
2022-11-05T10:49:33.842Z,60.07
2022-11-05T10:52:25.471Z,57.85
2022-11-05T10:55:02.378Z,57.52
2022-11-05T10:57:44.321Z,57.59
2022-11-05T11:00:28.466Z,56.58
2022-11-05T11:03:27.685Z,56.28
2022-11-05T11:06:13.512Z,55.58
2022-11-05T11:08:45.523Z,55.77
2022-11-05T11:11:41.021Z,56.73
2022-11-05T11:14:24.619Z,56.10
2022-11-05T11:16:57.552Z,56.52
2022-11-05T11:19:54.715Z,56.45
2022-11-05T11:22:28.867Z,57.36
2022-11-05T11:25:37.192Z,57.68
2022-11-05T11:28:34.824Z,56.43
2022-11-05T11:31:22.646Z,56.53
2022-11-05T11:34:13.242Z,56.88
2022-11-05T11:36:50.701Z,57.59
2022-11-05T11:39:35.868Z,58.07
2022-11-05T11:42:17.255Z,57.62
2022-11-05T11:44:50.348Z,58.02
2022-11-05T11:47:23.058Z,56.78
2022-11-05T11:50:02.063Z,56.18
2022-11-05T11:52:38.191Z,56.29
2022-11-05T11:55:20.619Z,56.22
2022-11-05T11:57:54.023Z,56.35
2022-11-05T12:00:27.114Z,55.86
2022-11-05T12:03:21.727Z,55.09
2022-11-05T12:06:16.796Z,55.66
2022-11-05T12:09:03.679Z,55.10
2022-11-05T12:11:48.795Z,55.18
2022-11-05T12:14:45.155Z,55.61
2022-11-05T12:17:35.528Z,54.89
2022-11-05T12:20:27.947Z,54.35
2022-11-05T12:23:18.340Z,54.87
2022-11-05T12:26:07.414Z,55.84
2022-11-05T12:29:17.392Z,54.44
2022-11-05T12:32:20.659Z,54.97
2022-11-05T12:35:18.343Z,55.34
2022-11-05T12:38:02.023Z,55.34
2022-11-05T12:41:10.794Z,55.65
2022-11-05T12:43:55.787Z,55.96
2022-11-05T12:46:46.334Z,55.59
2022-11-05T12:49:35.123Z,55.61
2022-11-05T12:52:20.120Z,55.44
2022-11-05T12:55:04.255Z,55.30
2022-11-05T12:57:38.169Z,55.42
2022-11-05T13:00:20.483Z,55.34
2022-11-05T13:02:58.369Z,55.51
2022-11-05T13:05:39.951Z,55.39
2022-11-05T13:08:23.761Z,55.44
2022-11-05T13:11:00.183Z,56.26
2022-11-05T13:13:38.803Z,55.76
2022-11-05T13:16:25.095Z,55.97
2022-11-05T13:19:15.419Z,56.42
2022-11-05T13:21:52.413Z,55.62
2022-11-05T13:24:27.265Z,55.62
2022-11-05T13:27:32.903Z,56.09
2022-11-05T13:30:15.985Z,56.64
2022-11-05T13:32:49.600Z,56.92
2022-11-05T13:35:41.269Z,57.40
2022-11-05T13:38:33.438Z,57.41
2022-11-05T13:41:25.832Z,57.83
2022-11-05T13:44:23.049Z,58.08
2022-11-05T13:47:22.114Z,58.11
2022-11-05T13:50:24.487Z,58.68
2022-11-05T13:53:15.796Z,59.09
2022-11-05T13:56:02.786Z,59.39
2022-11-05T13:58:55.703Z,59.53
2022-11-05T14:01:46.765Z,59.83
2022-11-05T14:04:26.837Z,60.27
2022-11-05T14:07:09.882Z,60.52
2022-11-05T14:09:42.803Z,60.83
2022-11-05T14:12:30.053Z,61.13
2022-11-05T14:15:18.124Z,61.24
2022-11-05T14:18:01.550Z,61.47
2022-11-05T14:21:03.744Z,61.61
2022-11-05T14:23:50.639Z,61.80
2022-11-05T14:26:24.055Z,61.86
2022-11-05T14:29:22.142Z,61.96
2022-11-05T14:32:09.471Z,62.59
2022-11-05T14:34:45.180Z,62.85
2022-11-05T14:37:28.280Z,63.08
2022-11-05T14:40:01.056Z,63.13
2022-11-05T14:42:31.086Z,62.98
2022-11-05T14:45:29.947Z,63.45
2022-11-05T14:48:35.313Z,63.36
2022-11-05T14:51:28.215Z,63.64
2022-11-05T14:54:14.036Z,64.49
2022-11-05T14:56:45.154Z,64.62
2022-11-05T14:59:49.713Z,64.67
2022-11-05T15:02:23.008Z,64.92
2022-11-05T15:04:53.174Z,64.68
2022-11-05T15:07:33.697Z,64.78
2022-11-05T15:10:14.325Z,64.92
2022-11-05T15:12:50.475Z,65.20
2022-11-05T15:15:24.171Z,65.20
2022-11-05T15:18:03.232Z,65.22
2022-11-05T15:20:40.360Z,65.49
2022-11-05T15:23:14.540Z,65.66
2022-11-05T15:25:56.117Z,65.56
2022-11-05T15:28:43.950Z,65.70
2022-11-05T15:31:36.798Z,66.01
2022-11-05T15:34:23.433Z,66.03
2022-11-05T15:36:57.669Z,66.42
2022-11-05T15:39:43.620Z,66.37
2022-11-05T15:42:16.479Z,66.59
2022-11-05T15:44:47.797Z,66.69
2022-11-05T15:47:20.044Z,66.84
2022-11-05T15:49:51.766Z,67.00
2022-11-05T15:52:23.534Z,67.32
2022-11-05T15:55:23.548Z,67.39
2022-11-05T15:58:03.259Z,67.61
2022-11-05T16:00:35.185Z,68.06
2022-11-05T16:03:31.510Z,67.94
2022-11-05T16:06:01.577Z,68.07
2022-11-05T16:08:31.615Z,68.15
2022-11-05T16:11:00.862Z,68.13
2022-11-05T16:13:36.100Z,68.10
2022-11-05T16:16:21.355Z,67.97
2022-11-05T16:18:49.445Z,67.90
2022-11-05T16:21:22.571Z,68.03
2022-11-05T16:23:58.068Z,68.23
2022-11-05T16:29:39.111Z,68.30
2022-11-05T16:32:30.696Z,68.48
2022-11-05T16:35:03.041Z,68.47
2022-11-05T16:37:39.724Z,68.64
2022-11-05T16:40:15.664Z,68.63
2022-11-05T16:42:45.397Z,68.81
2022-11-05T16:45:14.753Z,68.74
2022-11-05T16:47:44.218Z,68.87
2022-11-05T16:50:21.489Z,68.84
2022-11-05T16:52:49.659Z,68.83
2022-11-05T16:55:18.475Z,68.91
2022-11-05T16:57:51.096Z,69.11
2022-11-05T17:00:21.841Z,69.07
2022-11-05T17:02:50.838Z,69.28
2022-11-05T17:05:23.113Z,69.32
2022-11-05T17:07:53.887Z,69.57
2022-11-05T17:10:24.278Z,69.60
2022-11-05T17:12:53.068Z,69.69
2022-11-05T17:15:24.644Z,69.78
2022-11-05T17:17:54.519Z,69.77
2022-11-05T17:20:41.645Z,69.86
2022-11-05T17:23:12.235Z,69.84
2022-11-05T17:25:41.883Z,70.08
2022-11-05T17:28:11.330Z,70.13
2022-11-05T17:30:41.677Z,70.33
2022-11-05T17:33:11.495Z,70.29
2022-11-05T17:35:40.609Z,70.32
2022-11-05T17:38:10.392Z,70.48
2022-11-05T17:40:39.341Z,70.43
2022-11-05T17:43:07.597Z,70.61
2022-11-05T17:45:41.598Z,70.67
2022-11-05T17:48:10.395Z,70.55
2022-11-05T17:50:41.052Z,70.42
2022-11-05T17:53:09.637Z,70.40
2022-11-05T17:55:40.349Z,70.34
2022-11-05T17:58:08.713Z,70.21
2022-11-05T18:00:37.595Z,70.25
2022-11-05T18:03:05.533Z,70.34
2022-11-05T18:05:34.331Z,70.21
2022-11-05T18:08:02.348Z,70.28
2022-11-05T18:10:30.139Z,70.29
2022-11-05T18:12:58.016Z,70.23
2022-11-05T18:15:25.841Z,70.49
2022-11-05T18:17:53.664Z,72.37
2022-11-05T18:20:21.565Z,74.22
2022-11-05T18:22:50.714Z,73.77
2022-11-05T18:25:19.158Z,74.21
2022-11-05T18:27:46.928Z,73.93
2022-11-05T18:30:15.896Z,73.41
2022-11-05T18:32:44.671Z,73.45
2022-11-05T18:35:13.449Z,73.16
2022-11-05T18:37:42.382Z,73.17
2022-11-05T18:40:11.222Z,73.12
2022-11-05T18:42:39.220Z,73.08
2022-11-05T18:45:08.038Z,72.95
2022-11-05T18:47:35.963Z,73.73
2022-11-05T18:50:05.640Z,73.42
2022-11-05T18:52:33.583Z,73.47
2022-11-05T18:55:01.421Z,73.59
2022-11-05T18:57:29.339Z,73.59
2022-11-05T18:59:57.128Z,73.70
2022-11-05T19:02:25.487Z,73.66
2022-11-05T19:05:22.520Z,73.59
2022-11-05T19:07:41.411Z,73.78
2022-11-05T19:10:09.700Z,73.88
2022-11-05T19:12:37.543Z,73.85
2022-11-05T19:15:06.286Z,73.76
2022-11-05T19:17:34.744Z,73.63
2022-11-05T19:20:03.319Z,73.66
2022-11-05T19:22:31.832Z,73.68
2022-11-05T19:24:59.705Z,73.66
2022-11-05T19:27:27.553Z,73.53
2022-11-05T19:29:55.350Z,73.49
2022-11-05T19:32:23.926Z,73.60
2022-11-05T19:34:52.082Z,73.48
2022-11-05T19:37:20.059Z,73.39
2022-11-05T19:39:47.746Z,73.53
2022-11-05T19:42:15.547Z,73.45
2022-11-05T19:44:43.772Z,73.60
2022-11-05T19:47:11.588Z,73.48
2022-11-05T19:49:39.340Z,73.36
2022-11-05T19:52:07.192Z,73.55
2022-11-05T19:54:35.980Z,73.50
2022-11-05T19:57:03.856Z,73.96
2022-11-05T19:59:31.702Z,73.90
2022-11-05T20:01:59.944Z,73.72
2022-11-05T20:04:27.901Z,73.97
2022-11-05T20:06:55.927Z,73.89
2022-11-05T20:09:24.284Z,74.01
2022-11-05T20:11:54.409Z,74.19
2022-11-05T20:14:24.297Z,74.04
2022-11-05T20:16:52.718Z,74.26
2022-11-05T20:19:22.380Z,74.19
2022-11-05T20:21:50.256Z,74.79
2022-11-05T20:24:24.759Z,74.70
2022-11-05T20:26:55.209Z,74.54
2022-11-05T20:29:29.102Z,74.71
2022-11-05T20:32:02.239Z,74.79
2022-11-05T20:34:31.119Z,74.77
2022-11-05T20:36:58.968Z,74.93
2022-11-05T20:39:26.865Z,74.81
2022-11-05T20:41:56.347Z,74.93
2022-11-05T20:44:24.089Z,75.04
2022-11-05T20:46:51.903Z,75.01
2022-11-05T20:49:24.154Z,74.83
2022-11-05T20:51:55.024Z,75.03
2022-11-05T20:54:24.110Z,75.23
2022-11-05T20:57:02.416Z,75.15
2022-11-05T20:59:35.522Z,74.98
2022-11-05T21:02:17.314Z,75.21
2022-11-05T21:04:53.974Z,76.83
2022-11-05T21:07:30.152Z,75.77
2022-11-05T21:09:58.961Z,75.46
2022-11-05T21:12:27.088Z,75.42
2022-11-05T21:14:55.191Z,76.48
2022-11-05T21:17:23.225Z,75.97
2022-11-05T21:19:51.303Z,75.91
2022-11-05T21:22:19.432Z,75.61
2022-11-05T21:24:47.559Z,78.00
2022-11-05T21:27:15.641Z,77.30
2022-11-05T21:29:43.783Z,76.77
2022-11-05T21:32:12.179Z,76.82
2022-11-05T21:34:41.275Z,76.83
2022-11-05T21:37:09.533Z,76.93
2022-11-05T21:39:38.017Z,77.18
2022-11-05T21:42:09.069Z,76.96
2022-11-05T21:45:00.030Z,77.43
2022-11-05T21:47:29.294Z,77.45
2022-11-05T21:50:00.089Z,77.55
2022-11-05T21:52:45.959Z,77.78
2022-11-05T21:55:26.162Z,78.07
2022-11-05T21:58:16.339Z,77.94
2022-11-05T22:00:44.343Z,77.67
2022-11-05T22:03:13.701Z,77.63
2022-11-05T22:05:41.834Z,77.89
2022-11-05T22:08:10.467Z,77.79
2022-11-05T22:10:38.776Z,77.74
2022-11-05T22:13:06.888Z,77.71
2022-11-05T22:15:35.001Z,77.48
2022-11-05T22:18:03.676Z,77.76
2022-11-05T22:20:32.242Z,77.50
2022-11-05T22:23:00.248Z,77.41
2022-11-05T22:25:28.201Z,77.45
2022-11-05T22:27:56.384Z,77.44
2022-11-05T22:30:24.375Z,77.42
2022-11-05T22:32:52.085Z,77.47
2022-11-05T22:35:21.783Z,77.98
2022-11-05T22:37:53.700Z,78.13
2022-11-05T22:40:23.973Z,78.00
2022-11-05T22:42:55.676Z,78.03
2022-11-05T22:45:23.701Z,77.84
2022-11-05T22:47:53.200Z,77.79
2022-11-05T22:50:21.224Z,78.28
2022-11-05T22:52:49.387Z,78.27
2022-11-05T22:55:17.342Z,78.31
2022-11-05T22:57:45.451Z,78.82
2022-11-05T23:00:17.383Z,79.14
2022-11-05T23:02:45.527Z,79.25
2022-11-05T23:05:15.875Z,79.43
2022-11-05T23:08:03.721Z,79.75
2022-11-05T23:10:51.139Z,80.40
2022-11-05T23:13:19.110Z,80.39
2022-11-05T23:16:01.104Z,80.73
2022-11-05T23:18:44.122Z,80.72
2022-11-05T23:21:32.160Z,80.98
2022-11-05T23:24:07.296Z,80.67
2022-11-05T23:26:51.806Z,81.18
2022-11-05T23:29:26.735Z,80.79
2022-11-05T23:32:15.031Z,80.25
2022-11-05T23:34:43.186Z,80.30
2022-11-05T23:37:22.340Z,80.25
2022-11-05T23:39:50.516Z,80.08
2022-11-05T23:42:32.689Z,79.98
2022-11-05T23:45:14.640Z,79.84
2022-11-05T23:48:03.134Z,80.45
2022-11-05T23:50:36.934Z,80.23
2022-11-05T23:53:08.291Z,80.12
2022-11-05T23:55:36.715Z,80.07
2022-11-05T23:58:05.073Z,80.01
